Time;durP1;ratioP1;P1;durP2;ratioP2;P2;SDS_P1;SDS_P2;PMS_P1;PMS_P2;Temp;Humidity;BMP_temperature;BMP_pressure;BME280_temperature;BME280_humidity;BME280_pressure;Samples;Min_cycle;Max_cycle;Signal;HPM_P1;HPM_P2
2022/09/19 00:01:39;;;;;;;1.45;0.70;;;9.60;99.90;;;;;;5078140;28;20178;-85
2022/09/19 00:04:09;;;;;;;2.88;1.25;;;9.70;99.90;;;;;;5077207;28;20496;-84
2022/09/19 00:06:36;;;;;;;5.80;0.90;;;9.70;99.90;;;;;;5074992;28;20043;-85
2022/09/19 00:09:03;;;;;;;6.28;0.65;;;9.60;99.90;;;;;;5070206;28;20020;-84
2022/09/19 00:11:29;;;;;;;1.30;0.60;;;9.70;99.90;;;;;;5069079;28;20029;-85
2022/09/19 00:13:55;;;;;;;;;;;9.80;99.90;;;;;;5069046;28;20396;-84
2022/09/19 00:16:25;;;;;;;0.88;0.40;;;9.70;99.90;;;;;;5067124;28;19965;-84
2022/09/19 00:18:52;;;;;;;1.40;0.47;;;9.60;99.90;;;;;;5067043;28;20021;-85
2022/09/19 00:21:30;;;;;;;2.03;0.50;;;9.60;99.90;;;;;;5069860;28;20111;-86
2022/09/19 00:26:41;;;;;;;2.22;0.47;;;9.60;99.90;;;;;;5071094;28;20131;-86
2022/09/19 00:29:08;;;;;;;1.65;0.60;;;9.60;99.90;;;;;;5069346;28;20040;-84
2022/09/19 00:31:35;;;;;;;3.63;0.70;;;9.60;99.90;;;;;;5070473;28;20081;-85
2022/09/19 00:34:06;;;;;;;1.00;0.50;;;9.60;99.90;;;;;;5069252;28;20506;-86
2022/09/19 00:36:36;;;;;;;2.45;0.85;;;9.70;99.90;;;;;;5069928;28;20027;-85
2022/09/19 00:39:04;;;;;;;1.42;0.68;;;9.70;99.90;;;;;;5069971;28;20024;-85
2022/09/19 00:41:30;;;;;;;5.68;1.10;;;9.70;99.90;;;;;;5069444;28;20024;-85
2022/09/19 00:43:56;;;;;;;;;;;9.70;99.90;;;;;;5069265;28;20027;-86
2022/09/19 00:46:25;;;;;;;3.17;1.45;;;9.80;99.90;;;;;;5070851;28;20372;-85
2022/09/19 00:48:57;;;;;;;2.75;0.80;;;9.80;99.90;;;;;;5069719;28;20135;-86
2022/09/19 00:51:32;;;;;;;1.33;0.60;;;9.80;99.90;;;;;;5081562;28;20039;-86
2022/09/19 00:54:11;;;;;;;1.60;0.50;;;9.90;99.90;;;;;;5089709;28;20016;-85
2022/09/19 00:56:45;;;;;;;1.65;0.50;;;9.90;99.90;;;;;;5090918;28;20039;-86
2022/09/19 00:59:11;;;;;;;1.90;0.70;;;9.90;99.90;;;;;;5078518;28;20076;-86
2022/09/19 01:01:38;;;;;;;1.58;0.65;;;10.00;99.90;;;;;;5069386;28;20374;-84
2022/09/19 01:04:20;;;;;;;1.95;0.82;;;10.00;99.90;;;;;;5068912;28;20039;-86
2022/09/19 01:06:52;;;;;;;7.93;1.08;;;10.00;99.90;;;;;;5049672;28;20036;-86
2022/09/19 01:09:36;;;;;;;8.27;2.10;;;10.00;99.90;;;;;;5050587;28;20029;-86
2022/09/19 01:12:44;;;;;;;4.55;1.38;;;10.00;99.90;;;;;;5066562;28;20017;-86
2022/09/19 01:15:23;;;;;;;4.93;1.33;;;10.00;99.90;;;;;;5066217;28;20028;-83
2022/09/19 01:17:52;;;;;;;8.13;1.75;;;10.10;99.90;;;;;;5067474;28;20040;-83
2022/09/19 01:20:45;;;;;;;6.68;1.10;;;10.10;99.90;;;;;;5068813;28;20029;-82
2022/09/19 01:23:41;;;;;;;3.03;0.80;;;10.10;99.90;;;;;;5069571;28;20518;-84
2022/09/19 01:26:19;;;;;;;3.83;0.70;;;10.10;99.90;;;;;;5066787;28;20032;-83
2022/09/19 01:28:59;;;;;;;3.08;0.80;;;10.10;99.90;;;;;;5067156;28;20029;-82
2022/09/19 01:31:28;;;;;;;2.67;0.73;;;10.10;99.90;;;;;;5065922;28;20028;-83
2022/09/19 01:34:19;;;;;;;1.58;0.60;;;10.20;99.90;;;;;;5065771;28;20069;-84
2022/09/19 01:36:52;;;;;;;1.83;0.63;;;10.30;99.90;;;;;;5068060;28;20518;-83
2022/09/19 01:39:23;;;;;;;2.78;0.60;;;10.30;99.90;;;;;;5068241;28;20036;-86
2022/09/19 01:41:53;;;;;;;1.10;0.50;;;10.30;99.90;;;;;;5068222;28;20036;-85
2022/09/19 01:44:24;;;;;;;2.65;0.75;;;10.30;99.90;;;;;;5068832;28;20028;-85
2022/09/19 01:47:01;;;;;;;2.03;0.50;;;10.30;99.90;;;;;;5069917;28;20108;-86
2022/09/19 01:50:01;;;;;;;3.00;0.90;;;10.30;99.90;;;;;;5069703;28;20020;-87
2022/09/19 01:52:48;;;;;;;1.77;0.63;;;10.30;99.90;;;;;;4984982;28;20036;-85
2022/09/19 01:55:16;;;;;;;3.20;0.80;;;10.30;99.90;;;;;;5051184;28;20052;-83
2022/09/19 01:57:57;;;;;;;2.08;1.02;;;10.40;99.90;;;;;;5050916;28;20029;-83
2022/09/19 02:00:24;;;;;;;4.10;0.73;;;10.30;99.90;;;;;;5051229;28;20033;-86
2022/09/19 02:03:33;;;;;;;3.60;0.63;;;10.40;99.90;;;;;;5064478;28;20485;-84
2022/09/19 02:06:11;;;;;;;3.33;0.55;;;10.40;99.90;;;;;;5042013;28;20044;-85
2022/09/19 02:09:12;;;;;;;2.15;0.80;;;10.40;99.90;;;;;;5071631;28;20581;-85
2022/09/19 02:11:39;;;;;;;1.02;0.50;;;10.40;99.90;;;;;;5015596;28;20033;-85
2022/09/19 02:14:16;;;;;;;1.13;0.50;;;10.50;99.90;;;;;;5072281;28;20029;-84
2022/09/19 02:16:52;;;;;;;1.77;0.43;;;10.50;99.90;;;;;;5072246;28;20071;-86
2022/09/19 02:19:25;;;;;;;0.63;0.40;;;10.50;99.90;;;;;;5072911;28;20024;-86
2022/09/19 02:21:58;;;;;;;0.90;0.32;;;10.50;99.90;;;;;;5071164;28;20068;-85
2022/09/19 02:24:33;;;;;;;1.05;0.40;;;10.50;99.90;;;;;;5051787;28;20029;-85
2022/09/19 02:27:08;;;;;;;1.52;0.43;;;10.50;99.90;;;;;;5060898;28;20020;-85
2022/09/19 02:29:38;;;;;;;1.43;0.30;;;10.50;99.90;;;;;;5072822;28;20036;-85
2022/09/19 02:32:07;;;;;;;1.63;0.45;;;10.50;99.90;;;;;;5070753;28;20032;-84
2022/09/19 02:34:33;;;;;;;1.77;0.40;;;10.50;99.90;;;;;;5071152;28;20732;-85
2022/09/19 02:37:05;;;;;;;2.70;0.38;;;10.50;99.90;;;;;;5070997;28;20021;-84
2022/09/19 02:39:45;;;;;;;2.13;0.40;;;10.50;99.90;;;;;;5071472;28;20060;-86
2022/09/19 02:42:30;;;;;;;4.07;0.45;;;10.50;99.90;;;;;;5071491;28;20033;-85
2022/09/19 02:45:20;;;;;;;1.35;0.32;;;10.50;99.90;;;;;;5070203;28;20431;-83
2022/09/19 02:48:01;;;;;;;1.17;0.28;;;10.50;99.90;;;;;;5071610;28;20464;-85
2022/09/19 02:51:15;;;;;;;2.63;0.30;;;10.60;99.90;;;;;;5069752;28;20050;-83
2022/09/19 02:53:46;;;;;;;1.75;0.80;;;10.70;99.90;;;;;;5046048;28;20040;-83
2022/09/19 02:56:15;;;;;;;2.13;0.57;;;10.70;99.90;;;;;;5065386;28;20029;-84
2022/09/19 02:58:58;;;;;;;2.22;0.30;;;10.70;99.90;;;;;;5068806;28;20028;-83
2022/09/19 03:01:27;;;;;;;0.77;0.20;;;10.70;99.90;;;;;;5071253;28;20519;-83
2022/09/19 03:04:14;;;;;;;1.25;0.30;;;10.70;99.90;;;;;;5071036;28;20162;-84
2022/09/19 03:06:49;;;;;;;1.80;0.30;;;10.70;99.90;;;;;;5081813;28;20146;-83
2022/09/19 03:09:18;;;;;;;0.30;0.20;;;10.80;99.90;;;;;;5075041;28;20040;-84
2022/09/19 03:11:55;;;;;;;0.85;0.30;;;10.80;99.90;;;;;;5070315;28;20025;-83
2022/09/19 03:14:22;;;;;;;1.50;0.30;;;10.80;99.90;;;;;;5072084;28;20021;-82
2022/09/19 03:16:51;;;;;;;2.13;0.30;;;10.80;99.90;;;;;;5069023;28;20037;-84
2022/09/19 03:19:17;;;;;;;0.85;0.30;;;10.80;99.90;;;;;;5068454;28;20016;-82
2022/09/19 03:21:43;;;;;;;;;;;10.80;99.90;;;;;;5068544;28;20895;-83
2022/09/19 03:24:09;;;;;;;1.35;0.35;;;10.80;99.90;;;;;;5068815;28;19906;-83
2022/09/19 03:26:37;;;;;;;0.88;0.22;;;10.70;99.90;;;;;;5068750;28;20056;-83
2022/09/19 03:29:05;;;;;;;1.20;0.30;;;10.70;99.90;;;;;;5069409;28;20013;-83
2022/09/19 03:31:32;;;;;;;1.02;0.30;;;10.70;99.90;;;;;;5071133;28;20025;-85
2022/09/19 03:33:57;;;;;;;1.67;0.30;;;10.70;99.90;;;;;;5072012;28;20044;-82
2022/09/19 03:36:26;;;;;;;;;;;10.60;99.90;;;;;;5068974;28;20069;-81
2022/09/19 03:38:52;;;;;;;5.03;0.30;;;10.70;99.90;;;;;;5068087;28;20327;-83
2022/09/19 03:41:19;;;;;;;;;;;10.60;99.90;;;;;;5068525;28;20574;-82
2022/09/19 03:43:45;;;;;;;0.57;0.28;;;10.60;99.90;;;;;;5069393;28;19904;-84
2022/09/19 03:46:13;;;;;;;1.95;0.30;;;10.50;99.90;;;;;;5070033;28;20055;-85
2022/09/19 03:48:40;;;;;;;2.38;0.40;;;10.50;99.90;;;;;;5070015;28;20020;-86
2022/09/19 03:51:06;;;;;;;1.05;0.30;;;10.50;99.90;;;;;;5069995;28;20041;-85
2022/09/19 03:53:33;;;;;;;1.08;0.30;;;10.50;99.90;;;;;;5069377;28;20029;-85
2022/09/19 03:56:00;;;;;;;0.65;0.20;;;10.50;99.90;;;;;;5069251;28;20320;-84
2022/09/19 03:58:25;;;;;;;1.05;0.40;;;10.40;99.90;;;;;;5070267;28;20067;-84
2022/09/19 04:00:51;;;;;;;;;;;10.40;99.90;;;;;;5071892;28;20052;-85
2022/09/19 04:03:18;;;;;;;1.83;0.30;;;10.40;99.90;;;;;;5069888;28;19911;-85
2022/09/19 04:05:45;;;;;;;0.63;0.30;;;10.40;99.90;;;;;;5070240;28;20053;-82
2022/09/19 04:08:11;;;;;;;3.08;0.40;;;10.40;99.90;;;;;;5071288;28;20090;-82
2022/09/19 04:10:37;;;;;;;0.55;0.30;;;10.40;99.90;;;;;;5063739;28;20029;-83
2022/09/19 04:13:03;;;;;;;3.85;0.90;;;10.30;99.90;;;;;;5068476;28;20039;-84
2022/09/19 04:15:28;;;;;;;;;;;10.30;99.90;;;;;;5069627;28;20032;-84
2022/09/19 04:17:54;;;;;;;3.10;0.22;;;10.30;99.90;;;;;;5070254;28;19908;-83
2022/09/19 04:20:20;;;;;;;;;;;10.30;99.90;;;;;;5069706;28;20028;-83
2022/09/19 04:22:45;;;;;;;1.77;0.47;;;10.30;99.90;;;;;;5069186;28;19904;-84
2022/09/19 04:25:12;;;;;;;;;;;10.30;99.90;;;;;;5068257;28;20234;-84
2022/09/19 04:27:38;;;;;;;4.13;0.40;;;10.20;99.90;;;;;;5068253;28;19908;-86
2022/09/19 04:30:05;;;;;;;1.00;0.20;;;10.30;99.90;;;;;;5060595;28;20028;-83
2022/09/19 04:32:31;;;;;;;2.08;0.30;;;10.30;99.90;;;;;;5065403;28;20465;-88
2022/09/19 04:34:57;;;;;;;;;;;10.30;99.90;;;;;;5070101;28;20031;-85
2022/09/19 04:37:23;;;;;;;4.25;0.40;;;10.30;99.90;;;;;;5068733;28;19914;-84
2022/09/19 04:39:49;;;;;;;;;;;10.30;99.90;;;;;;5067916;28;20032;-86
2022/09/19 04:42:16;;;;;;;1.08;0.30;;;10.30;99.90;;;;;;5067807;28;19995;-84
2022/09/19 04:44:42;;;;;;;4.25;0.30;;;10.30;99.90;;;;;;5068289;28;20040;-85
2022/09/19 04:47:10;;;;;;;1.55;0.22;;;10.30;99.90;;;;;;5069327;28;20543;-85
2022/09/19 04:49:39;;;;;;;1.75;0.50;;;10.30;99.90;;;;;;5068447;28;20058;-85
2022/09/19 04:52:13;;;;;;;3.97;0.25;;;10.30;99.90;;;;;;5068181;28;20029;-85
2022/09/19 04:54:39;;;;;;;1.15;0.20;;;10.30;99.90;;;;;;5069064;28;20017;-84
2022/09/19 04:57:07;;;;;;;0.70;0.20;;;10.40;99.90;;;;;;5068768;28;20036;-86
2022/09/19 04:59:33;;;;;;;0.82;0.20;;;10.40;99.90;;;;;;5069543;28;20025;-84
2022/09/19 05:02:01;;;;;;;0.98;0.30;;;10.40;99.90;;;;;;5061351;28;20036;-85
2022/09/19 05:04:27;;;;;;;1.50;0.30;;;10.40;99.90;;;;;;5067557;28;20534;-85
2022/09/19 05:06:53;;;;;;;0.60;0.30;;;10.40;99.90;;;;;;5068120;28;20036;-86
2022/09/19 05:09:22;;;;;;;1.00;0.30;;;10.50;99.90;;;;;;5069398;28;20070;-84
2022/09/19 05:11:49;;;;;;;2.10;0.30;;;10.50;99.90;;;;;;5068261;28;20481;-85
2022/09/19 05:14:15;;;;;;;3.92;0.40;;;10.40;99.90;;;;;;5068732;28;20503;-84
2022/09/19 05:16:41;;;;;;;;;;;10.50;99.90;;;;;;5064739;28;20041;-85
2022/09/19 05:19:08;;;;;;;0.50;0.30;;;10.50;99.90;;;;;;5068324;28;19928;-83
2022/09/19 05:21:34;;;;;;;1.65;0.20;;;10.50;99.90;;;;;;5063942;28;20060;-85
2022/09/19 05:24:01;;;;;;;2.42;0.30;;;10.50;99.90;;;;;;5056560;28;20443;-85
2022/09/19 05:26:27;;;;;;;1.00;0.20;;;10.50;99.90;;;;;;5068426;28;20043;-85
2022/09/19 05:28:53;;;;;;;1.00;0.40;;;10.60;99.90;;;;;;5069205;28;20043;-85
2022/09/19 05:31:19;;;;;;;;;;;10.60;99.90;;;;;;5053477;28;20029;-84
2022/09/19 05:33:46;;;;;;;1.55;0.57;;;10.60;99.90;;;;;;5052350;28;20195;-85
2022/09/19 05:36:13;;;;;;;1.65;0.30;;;10.60;99.90;;;;;;5065305;28;20032;-84
2022/09/19 05:38:39;;;;;;;2.90;0.30;;;10.60;99.90;;;;;;5072577;28;20063;-85
2022/09/19 05:41:05;;;;;;;;;;;10.70;99.90;;;;;;5072111;28;20024;-85
2022/09/19 05:43:30;;;;;;;3.40;0.60;;;10.70;99.90;;;;;;5072211;28;20438;-84
2022/09/19 05:45:56;;;;;;;;;;;10.70;99.90;;;;;;5071899;28;20477;-85
2022/09/19 05:48:23;;;;;;;0.70;0.30;;;10.80;99.90;;;;;;5071683;28;19951;-85
2022/09/19 05:50:50;;;;;;;3.10;0.57;;;10.80;99.90;;;;;;5074026;28;20036;-85
2022/09/19 05:56:04;;;;;;;1.10;0.30;;;10.80;99.90;;;;;;5074801;28;20036;-85
2022/09/19 05:58:29;;;;;;;2.72;0.73;;;10.80;99.90;;;;;;5068613;28;20025;-85
2022/09/19 06:00:55;;;;;;;;;;;10.80;99.90;;;;;;5074721;28;20021;-85
2022/09/19 06:03:22;;;;;;;3.63;0.50;;;10.80;99.90;;;;;;5072641;28;19908;-85
2022/09/19 06:05:50;;;;;;;1.65;0.30;;;10.90;99.90;;;;;;5070418;28;20432;-85
2022/09/19 06:08:21;;;;;;;3.53;0.40;;;11.10;99.90;;;;;;5077877;28;20020;-85
2022/09/19 06:10:47;;;;;;;1.58;0.40;;;11.20;99.90;;;;;;5089508;28;20031;-84
2022/09/19 06:13:17;;;;;;;1.00;0.28;;;11.40;99.90;;;;;;5076977;28;20028;-85
2022/09/19 06:15:42;;;;;;;2.53;0.40;;;11.40;99.90;;;;;;5065935;28;20048;-85
2022/09/19 06:18:11;;;;;;;;;;;11.50;99.90;;;;;;5073509;28;20108;-85
2022/09/19 06:20:41;;;;;;;4.68;0.55;;;11.50;99.90;;;;;;5071022;28;19938;-85
2022/09/19 06:23:09;;;;;;;1.70;0.50;;;11.40;99.90;;;;;;5053874;28;20043;-85
2022/09/19 06:25:36;;;;;;;1.65;0.40;;;11.60;99.90;;;;;;5051035;28;20124;-85
2022/09/19 06:28:10;;;;;;;1.85;0.30;;;11.70;99.90;;;;;;5072265;28;20024;-85
2022/09/19 06:30:36;;;;;;;1.10;0.30;;;11.90;99.90;;;;;;5071626;28;20065;-85
2022/09/19 06:33:05;;;;;;;4.07;1.10;;;12.00;99.90;;;;;;5067575;28;20063;-84
2022/09/19 06:35:31;;;;;;;1.48;0.30;;;12.10;99.90;;;;;;5071318;28;20029;-85
2022/09/19 06:37:58;;;;;;;;;;;12.20;99.90;;;;;;5073165;28;20031;-85
2022/09/19 06:40:24;;;;;;;2.97;0.40;;;12.10;99.90;;;;;;5092453;28;19904;-85
2022/09/19 06:42:55;;;;;;;;;;;12.00;99.90;;;;;;5091716;28;20028;-86
2022/09/19 06:45:22;;;;;;;1.80;0.40;;;11.90;99.90;;;;;;5091506;28;19912;-84
2022/09/19 06:47:48;;;;;;;2.35;0.40;;;11.80;99.90;;;;;;5074285;28;20238;-83
2022/09/19 06:50:16;;;;;;;;;;;11.70;99.90;;;;;;5071586;28;20610;-84
2022/09/19 06:52:46;;;;;;;1.02;0.20;;;11.70;99.90;;;;;;5071429;28;19905;-85
2022/09/19 06:55:11;;;;;;;1.08;0.35;;;11.60;99.90;;;;;;5083399;28;20118;-84
2022/09/19 06:57:37;;;;;;;;;;;11.60;99.90;;;;;;5091852;28;20553;-85
2022/09/19 07:00:03;;;;;;;4.85;0.30;;;11.50;99.90;;;;;;5089272;28;19914;-85
2022/09/19 07:02:29;;;;;;;;;;;11.30;99.90;;;;;;5084251;28;20051;-84
2022/09/19 07:04:54;;;;;;;1.70;0.40;;;11.20;99.90;;;;;;5070838;28;19916;-85
2022/09/19 07:07:20;;;;;;;;;;;11.10;99.90;;;;;;5071308;28;20139;-85
2022/09/19 07:09:45;;;;;;;1.02;0.43;;;11.00;99.90;;;;;;5070720;28;19905;-85
2022/09/19 07:12:11;;;;;;;;;;;11.00;99.90;;;;;;5090792;28;20077;-84
2022/09/19 07:14:37;;;;;;;1.50;0.50;;;11.00;99.90;;;;;;5072932;28;19904;-85
2022/09/19 07:17:04;;;;;;;2.95;0.47;;;11.00;99.90;;;;;;5070769;28;20131;-85
2022/09/19 07:19:29;;;;;;;1.15;0.40;;;11.10;99.90;;;;;;5071607;28;20418;-83
2022/09/19 07:21:55;;;;;;;;;;;11.10;99.90;;;;;;5070562;28;20120;-84
2022/09/19 07:24:20;;;;;;;1.48;0.30;;;11.10;99.90;;;;;;5070787;28;19909;-85
2022/09/19 07:26:46;;;;;;;;;;;11.20;99.90;;;;;;5072039;28;20396;-85
2022/09/19 07:29:11;;;;;;;0.40;0.30;;;11.40;99.90;;;;;;5069662;28;20003;-84
2022/09/19 07:31:37;;;;;;;;;;;11.50;99.90;;;;;;5071641;28;20032;-85
2022/09/19 07:34:03;;;;;;;1.27;0.75;;;11.60;99.90;;;;;;5070089;28;20241;-84
2022/09/19 07:36:29;;;;;;;;;;;11.70;99.90;;;;;;5070781;28;20032;-84
2022/09/19 07:38:54;;;;;;;1.48;0.20;;;11.70;99.90;;;;;;5080118;28;19928;-84
2022/09/19 07:41:20;;;;;;;;;;;11.70;99.90;;;;;;5090811;28;20067;-86
2022/09/19 07:43:48;;;;;;;1.02;0.30;;;11.70;99.90;;;;;;5090499;28;20272;-85
2022/09/19 07:46:15;;;;;;;2.55;0.30;;;11.60;99.90;;;;;;5085689;28;20032;-85
2022/09/19 07:48:46;;;;;;;0.80;0.22;;;11.60;99.90;;;;;;5067343;28;20029;-86
2022/09/19 07:51:12;;;;;;;0.40;0.20;;;11.40;99.90;;;;;;5069824;28;20541;-85
2022/09/19 07:53:37;;;;;;;;;;;11.30;99.90;;;;;;5082720;28;20107;-87
2022/09/19 07:56:05;;;;;;;1.77;0.25;;;11.30;99.90;;;;;;5090089;28;20018;-85
2022/09/19 07:58:31;;;;;;;1.23;0.17;;;11.20;99.90;;;;;;5082336;28;20121;-85
2022/09/19 08:01:00;;;;;;;;;;;11.20;99.90;;;;;;5070092;28;20449;-85
2022/09/19 08:03:26;;;;;;;0.50;0.20;;;11.20;99.90;;;;;;5067062;28;20524;-85
2022/09/19 08:05:52;;;;;;;;;;;11.10;99.90;;;;;;5069759;28;20084;-86
2022/09/19 08:08:21;;;;;;;1.70;0.30;;;11.00;99.90;;;;;;5070317;28;19966;-85
2022/09/19 08:10:46;;;;;;;0.25;0.15;;;11.10;99.90;;;;;;5069120;28;20032;-85
2022/09/19 08:13:13;;;;;;;;;;;11.10;99.90;;;;;;5070066;28;20017;-85
2022/09/19 08:15:39;;;;;;;0.70;0.20;;;11.20;99.90;;;;;;5069477;28;19978;-84
2022/09/19 08:18:14;;;;;;;2.63;0.30;;;11.30;99.90;;;;;;5069999;28;20025;-84
2022/09/19 08:20:41;;;;;;;3.92;0.20;;;11.40;99.90;;;;;;5069732;28;20115;-86
2022/09/19 08:23:10;;;;;;;3.20;0.20;;;11.50;99.90;;;;;;5069510;28;20074;-85
2022/09/19 08:25:38;;;;;;;0.63;0.30;;;11.50;99.90;;;;;;5069285;28;20493;-83
2022/09/19 08:28:05;;;;;;;0.40;0.20;;;11.50;99.90;;;;;;5068931;28;20052;-86
2022/09/19 08:30:35;;;;;;;0.55;0.30;;;11.50;99.90;;;;;;5069065;28;20020;-85
2022/09/19 08:33:02;;;;;;;0.85;0.30;;;11.70;99.90;;;;;;5069783;28;20060;-85
2022/09/19 08:35:29;;;;;;;0.50;0.30;;;11.80;99.90;;;;;;5069732;28;20063;-85
2022/09/19 08:38:00;;;;;;;0.70;0.30;;;12.00;99.90;;;;;;5068799;28;20492;-84
2022/09/19 08:40:26;;;;;;;2.58;0.20;;;12.20;99.90;;;;;;5069314;28;20107;-85
2022/09/19 08:42:51;;;;;;;;;;;12.30;99.90;;;;;;5069052;28;20139;-85
2022/09/19 08:45:32;;;;;;;0.88;0.50;;;12.50;99.90;;;;;;5069337;28;19965;-85
2022/09/19 08:48:02;;;;;;;0.45;0.22;;;12.80;99.90;;;;;;5068944;28;20021;-86
2022/09/19 08:50:32;;;;;;;0.70;0.20;;;13.10;99.90;;;;;;5070012;28;20028;-86
2022/09/19 08:53:03;;;;;;;1.55;0.40;;;13.30;99.90;;;;;;5069189;28;20501;-86
2022/09/19 08:55:33;;;;;;;1.10;0.20;;;13.80;99.90;;;;;;5068049;28;20029;-86
2022/09/19 08:58:03;;;;;;;0.25;0.20;;;15.30;99.90;;;;;;5069388;28;21345;-86
2022/09/19 09:00:35;;;;;;;0.15;0.10;;;16.40;99.90;;;;;;5069343;28;20024;-87
2022/09/19 09:03:07;;;;;;;0.15;0.10;;;17.10;99.90;;;;;;5069011;28;20481;-87
2022/09/19 09:05:43;;;;;;;0.30;0.10;;;17.50;99.90;;;;;;5069208;28;20065;-87
2022/09/19 09:08:28;;;;;;;0.20;0.10;;;17.90;99.90;;;;;;5068973;28;20086;-85
2022/09/19 09:11:12;;;;;;;0.40;0.13;;;18.20;99.90;;;;;;5084226;28;20036;-86
2022/09/19 09:13:46;;;;;;;0.17;0.10;;;17.80;99.90;;;;;;5089345;28;20037;-86
2022/09/19 09:16:28;;;;;;;0.20;0.17;;;17.30;99.90;;;;;;5080325;28;20096;-85
2022/09/19 09:19:17;;;;;;;0.38;0.10;;;16.90;99.90;;;;;;5070567;28;20056;-87
2022/09/19 09:22:06;;;;;;;0.15;0.10;;;17.40;99.90;;;;;;5068949;28;20028;-87
2022/09/19 09:24:38;;;;;;;0.55;0.17;;;18.20;99.90;;;;;;5070422;28;20512;-86
2022/09/19 09:27:18;;;;;;;0.20;0.10;;;18.40;99.90;;;;;;5065552;28;20584;-83
2022/09/19 09:29:50;;;;;;;0.15;0.10;;;18.00;99.10;;;;;;5068764;28;20028;-86
2022/09/19 09:32:32;;;;;;;0.13;0.10;;;17.40;99.30;;;;;;5070474;28;20050;-86
2022/09/19 09:35:04;;;;;;;0.47;0.20;;;16.80;99.90;;;;;;5069748;28;20507;-85
2022/09/19 09:38:02;;;;;;;0.20;0.20;;;16.70;99.90;;;;;;5068986;28;20060;-86
2022/09/19 09:44:13;;;;;;;0.32;0.20;;;18.40;99.20;;;;;;5035428;28;20059;-86
2022/09/19 09:46:48;;;;;;;0.52;0.30;;;19.30;97.80;;;;;;5057048;28;20032;-86
2022/09/19 09:49:15;;;;;;;6.03;0.20;;;19.90;95.80;;;;;;5068988;28;20024;-85
2022/09/19 09:51:47;;;;;;;0.30;0.30;;;20.40;95.50;;;;;;5068780;28;20522;-86
2022/09/19 09:58:07;;;;;;;0.68;0.20;;;20.70;92.80;;;;;;5069925;28;20066;-86
2022/09/19 10:03:35;;;;;;;0.50;0.20;;;18.30;93.80;;;;;;5069899;28;20031;-87
2022/09/19 10:06:52;;;;;;;0.10;0.10;;;17.20;95.00;;;;;;5068931;28;20572;-86
2022/09/19 10:09:33;;;;;;;1.40;0.20;;;16.70;97.40;;;;;;5027434;28;20064;-85
2022/09/19 10:12:06;;;;;;;0.30;0.17;;;16.90;98.70;;;;;;5068909;28;20056;-87
2022/09/19 10:14:35;;;;;;;0.55;0.20;;;17.90;97.20;;;;;;5072528;28;20077;-86
2022/09/19 10:17:04;;;;;;;0.20;0.20;;;18.80;95.60;;;;;;5072144;28;20078;-87
2022/09/19 10:19:51;;;;;;;0.77;0.20;;;19.40;94.10;;;;;;5073484;28;20033;-87
2022/09/19 10:22:17;;;;;;;0.38;0.17;;;19.60;93.70;;;;;;5071740;28;20051;-87
2022/09/19 10:24:53;;;;;;;0.20;0.10;;;19.10;91.50;;;;;;5071701;28;20037;-86
2022/09/19 10:27:37;;;;;;;0.13;0.10;;;18.60;91.60;;;;;;5071629;28;20024;-86
2022/09/19 10:30:25;;;;;;;0.63;0.20;;;18.20;93.00;;;;;;5071143;28;20036;-86
2022/09/19 10:32:51;;;;;;;0.43;0.10;;;17.70;94.80;;;;;;5072508;28;20052;-86
2022/09/19 10:35:33;;;;;;;3.90;0.20;;;17.50;96.30;;;;;;5070188;28;20381;-84
2022/09/19 10:38:14;;;;;;;0.30;0.22;;;17.00;96.90;;;;;;5068981;28;20036;-83
2022/09/19 10:40:57;;;;;;;0.82;0.20;;;16.50;97.30;;;;;;5071494;28;20020;-84
2022/09/19 10:43:30;;;;;;;0.75;0.20;;;16.20;97.90;;;;;;5070807;28;20035;-84
2022/09/19 10:46:05;;;;;;;0.82;0.20;;;15.70;99.30;;;;;;5071918;28;20033;-85
2022/09/19 10:48:33;;;;;;;0.47;0.20;;;15.30;99.90;;;;;;5072116;28;20477;-85
2022/09/19 10:51:04;;;;;;;0.60;0.20;;;15.10;99.90;;;;;;5081444;28;20038;-85
2022/09/19 10:53:35;;;;;;;0.38;0.20;;;15.00;99.90;;;;;;5092568;28;20034;-85
2022/09/19 10:56:22;;;;;;;1.30;0.28;;;15.10;99.90;;;;;;5088375;28;20024;-85
2022/09/19 10:59:09;;;;;;;0.70;0.20;;;15.30;99.90;;;;;;5081966;28;20024;-85
2022/09/19 11:01:34;;;;;;;;;;;15.30;99.90;;;;;;5053991;28;20135;-85
2022/09/19 11:04:21;;;;;;;1.55;0.20;;;15.50;99.90;;;;;;5071419;28;20004;-85
2022/09/19 11:07:02;;;;;;;0.22;0.10;;;15.60;99.90;;;;;;5072090;28;20053;-85
2022/09/19 11:09:33;;;;;;;0.20;0.20;;;15.80;99.90;;;;;;5071278;28;20020;-86
2022/09/19 11:12:10;;;;;;;0.15;0.10;;;15.80;99.90;;;;;;5071184;28;20138;-84
2022/09/19 11:14:38;;;;;;;0.35;0.10;;;15.60;99.90;;;;;;5071787;28;20056;-85
2022/09/19 11:17:31;;;;;;;1.65;0.20;;;15.40;99.90;;;;;;5071115;28;20051;-85
2022/09/19 11:20:16;;;;;;;1.15;0.20;;;15.40;99.50;;;;;;5072058;28;20208;-85
2022/09/19 11:23:17;;;;;;;0.55;0.20;;;15.30;99.90;;;;;;5071549;28;20379;-85
2022/09/19 11:26:11;;;;;;;1.50;0.20;;;15.50;99.90;;;;;;5070683;28;20040;-86
2022/09/19 11:28:55;;;;;;;1.60;0.20;;;15.50;99.50;;;;;;5070909;28;20032;-85
2022/09/19 11:31:43;;;;;;;1.40;0.30;;;15.60;99.00;;;;;;5070555;28;20028;-85
2022/09/19 11:34:21;;;;;;;1.77;0.38;;;15.70;99.20;;;;;;5070839;28;20361;-85
2022/09/19 11:37:21;;;;;;;0.40;0.22;;;15.70;98.90;;;;;;5070088;28;20021;-85
2022/09/19 11:39:53;;;;;;;3.95;0.20;;;15.70;98.60;;;;;;5071520;28;20108;-84
2022/09/19 11:42:37;;;;;;;1.60;0.20;;;15.60;98.40;;;;;;5070614;28;20028;-84
2022/09/19 11:45:11;;;;;;;0.68;0.13;;;15.80;98.70;;;;;;5070638;28;20429;-86
2022/09/19 11:47:50;;;;;;;4.13;0.32;;;15.80;99.10;;;;;;5069998;28;20055;-85
2022/09/19 11:50:22;;;;;;;0.13;0.10;;;16.00;98.30;;;;;;5071091;28;20020;-86
2022/09/19 11:53:18;;;;;;;3.55;0.20;;;16.00;97.60;;;;;;5070503;28;20473;-84
2022/09/19 11:56:09;;;;;;;0.57;0.20;;;16.00;97.40;;;;;;5069869;28;20029;-85
2022/09/19 11:58:51;;;;;;;1.33;0.38;;;16.10;98.00;;;;;;5070048;28;20352;-85
2022/09/19 12:01:40;;;;;;;2.10;0.20;;;16.10;97.10;;;;;;5071488;28;20028;-86
2022/09/19 12:04:24;;;;;;;0.30;0.10;;;15.90;97.80;;;;;;5070767;28;20052;-86
2022/09/19 12:07:14;;;;;;;6.60;0.20;;;15.90;98.10;;;;;;5070005;28;20060;-85
2022/09/19 12:09:55;;;;;;;1.45;0.35;;;15.80;98.50;;;;;;5070148;28;20035;-86
2022/09/19 12:12:26;;;;;;;0.35;0.20;;;15.80;97.60;;;;;;5070231;28;20030;-84
2022/09/19 12:15:11;;;;;;;0.20;0.10;;;15.80;97.40;;;;;;5087120;28;20023;-85
2022/09/19 12:17:42;;;;;;;0.73;0.13;;;15.70;96.90;;;;;;5082018;28;20048;-85
2022/09/19 12:20:25;;;;;;;2.38;0.10;;;15.60;97.00;;;;;;5070512;28;20024;-84
2022/09/19 12:24:51;;;;;;;2.20;0.52;;;15.40;97.00;;;;;;5070349;28;20078;-85
2022/09/19 12:25:44;;;;;;;0.35;0.15;;;15.50;97.50;;;;;;5070004;28;20041;-85
2022/09/19 12:28:15;;;;;;;0.10;0.10;;;15.70;98.10;;;;;;5068249;28;20047;-85
2022/09/19 12:30:48;;;;;;;0.10;0.10;;;15.90;98.00;;;;;;5069959;28;20040;-86
2022/09/19 12:33:28;;;;;;;0.30;0.10;;;16.20;97.00;;;;;;5069216;28;20515;-86
2022/09/19 12:36:04;;;;;;;0.88;0.10;;;16.40;96.30;;;;;;5069748;28;20040;-86
2022/09/19 12:38:59;;;;;;;0.65;0.10;;;16.50;96.10;;;;;;5071142;28;20028;-85
2022/09/19 12:41:55;;;;;;;0.90;0.20;;;16.60;96.10;;;;;;5068965;28;20540;-86
2022/09/19 12:44:36;;;;;;;2.85;0.20;;;16.60;95.70;;;;;;5069378;28;20055;-84
2022/09/19 12:47:16;;;;;;;0.20;0.10;;;16.60;96.10;;;;;;5069728;28;20047;-86
2022/09/19 12:50:08;;;;;;;2.28;0.30;;;16.50;95.80;;;;;;5070539;28;20034;-86
2022/09/19 12:52:47;;;;;;;0.20;0.10;;;16.50;95.60;;;;;;5069550;28;20036;-87
2022/09/19 12:55:18;;;;;;;0.25;0.10;;;16.10;95.70;;;;;;5069513;28;20481;-86
2022/09/19 12:57:55;;;;;;;0.25;0.13;;;16.00;96.20;;;;;;5069456;28;20028;-86
2022/09/19 13:00:22;;;;;;;0.35;0.10;;;15.70;96.50;;;;;;5071007;28;20125;-86
2022/09/19 13:03:16;;;;;;;0.65;0.20;;;15.70;97.00;;;;;;5069658;28;20024;-86
2022/09/19 13:06:05;;;;;;;0.68;0.10;;;15.70;97.70;;;;;;5069628;28;20040;-86
2022/09/19 13:08:37;;;;;;;0.10;0.10;;;15.60;97.50;;;;;;5067921;28;20505;-84
2022/09/19 13:11:08;;;;;;;0.20;0.10;;;15.50;97.60;;;;;;5078870;28;20126;-86
2022/09/19 13:13:39;;;;;;;0.60;0.10;;;15.40;97.60;;;;;;5089517;28;20028;-86
2022/09/19 13:16:08;;;;;;;0.15;0.10;;;15.30;98.10;;;;;;5089842;28;20052;-84
2022/09/19 13:24:40;;;;;;;1.40;0.20;;;14.80;98.80;;;;;;5070283;28;20021;-85
2022/09/19 13:27:06;;;;;;;1.55;0.47;;;14.70;99.30;;;;;;5068493;28;20275;-80
2022/09/19 13:29:44;;;;;;;;;;;14.60;99.20;;;;;;5067367;28;20021;-81
2022/09/19 13:32:52;;;;;;;0.90;0.50;;;14.50;99.30;;;;;;5065622;28;20458;-82
2022/09/19 13:35:22;;;;;;;0.90;0.20;;;14.50;99.90;;;;;;5080082;28;20415;-81
2022/09/19 13:37:51;;;;;;;0.98;0.25;;;14.50;99.90;;;;;;5086131;28;20032;-82
2022/09/19 13:40:28;;;;;;;0.40;0.13;;;14.50;99.90;;;;;;5087302;28;20052;-82
2022/09/19 13:43:09;;;;;;;0.15;0.10;;;14.50;99.90;;;;;;5075069;28;20028;-82
2022/09/19 13:45:39;;;;;;;0.10;0.10;;;14.50;99.90;;;;;;5066654;28;20455;-82
2022/09/19 13:48:37;;;;;;;0.10;0.10;;;14.40;99.90;;;;;;5069328;28;20020;-83
2022/09/19 13:51:05;;;;;;;0.52;0.10;;;14.40;99.90;;;;;;5069726;28;20070;-85